Time;durP1;ratioP1;P1;durP2;ratioP2;P2;SDS_P1;SDS_P2;PMS_P1;PMS_P2;Temp;Humidity;BMP_temperature;BMP_pressure;BME280_temperature;BME280_humidity;BME280_pressure;Samples;Min_cycle;Max_cycle;Signal;HPM_P1;HPM_P2
2022/07/23 00:00:13;;;;;;;7.20;6.27;;;26.30;63.30;;;;;;5006455;28;20440;-80
2022/07/23 00:02:40;;;;;;;7.83;7.10;;;26.30;63.40;;;;;;5005426;28;20834;-80
2022/07/23 00:05:07;;;;;;;7.37;6.70;;;26.20;63.90;;;;;;5003622;28;20842;-81
2022/07/23 00:07:34;;;;;;;6.33;5.83;;;26.10;64.30;;;;;;5005524;28;20474;-81
2022/07/23 00:10:01;;;;;;;8.00;7.37;;;26.00;65.00;;;;;;5000833;28;20451;-81
2022/07/23 00:12:28;;;;;;;6.90;6.30;;;26.00;65.00;;;;;;4999347;28;20451;-80
2022/07/23 00:14:56;;;;;;;7.37;6.77;;;25.90;65.40;;;;;;4997876;28;20494;-80
2022/07/23 00:17:23;;;;;;;8.10;7.37;;;25.90;65.10;;;;;;5014636;28;20435;-80
2022/07/23 00:19:49;;;;;;;8.23;7.60;;;25.90;65.40;;;;;;5012892;28;20467;-81
2022/07/23 00:22:16;;;;;;;7.07;6.37;;;25.90;65.20;;;;;;5003678;28;20458;-81
2022/07/23 00:24:43;;;;;;;6.60;6.10;;;25.90;65.10;;;;;;5007206;28;20479;-81
2022/07/23 00:27:09;;;;;;;6.50;6.00;;;25.80;65.00;;;;;;5000424;28;20483;-81
2022/07/23 00:29:36;;;;;;;6.43;5.80;;;25.80;65.50;;;;;;4998287;28;20463;-81
2022/07/23 00:32:05;;;;;;;6.87;5.70;;;25.70;65.60;;;;;;4999553;28;20483;-81
2022/07/23 00:34:31;;;;;;;6.83;6.23;;;25.70;65.90;;;;;;4997640;28;20475;-81
2022/07/23 00:36:58;;;;;;;6.90;6.17;;;25.70;66.20;;;;;;5013939;28;20446;-80
2022/07/23 00:39:25;;;;;;;6.13;5.27;;;25.60;65.80;;;;;;5015950;28;20439;-80
2022/07/23 00:41:52;;;;;;;6.40;5.90;;;25.60;66.00;;;;;;5008346;28;20454;-81
2022/07/23 00:44:20;;;;;;;5.47;5.07;;;25.50;65.80;;;;;;5000353;28;20817;-81
2022/07/23 00:46:49;;;;;;;6.10;5.60;;;25.50;66.90;;;;;;4999401;28;20486;-81
2022/07/23 00:49:17;;;;;;;6.53;5.93;;;25.30;69.40;;;;;;5001035;28;20458;-81
2022/07/23 00:51:43;;;;;;;6.63;6.03;;;24.90;73.40;;;;;;5000736;28;20517;-81
2022/07/23 00:54:11;;;;;;;6.27;5.77;;;24.60;76.90;;;;;;4999885;28;20494;-81
2022/07/23 00:56:38;;;;;;;7.37;6.73;;;24.60;75.70;;;;;;4998959;28;20451;-81
2022/07/23 00:59:07;;;;;;;5.67;5.27;;;24.60;77.50;;;;;;5001033;28;20501;-81
2022/07/23 01:01:34;;;;;;;6.23;5.73;;;24.60;77.20;;;;;;5000781;28;20871;-81
2022/07/23 01:04:00;;;;;;;6.73;6.23;;;24.60;76.90;;;;;;5000327;28;20468;-81
2022/07/23 01:06:28;;;;;;;6.33;5.83;;;24.60;77.80;;;;;;4999612;28;20451;-81
2022/07/23 01:08:56;;;;;;;6.00;5.50;;;24.50;77.00;;;;;;5008210;28;20444;-80
2022/07/23 01:11:24;;;;;;;6.30;5.80;;;24.50;77.60;;;;;;5010132;28;20439;-81
2022/07/23 01:13:51;;;;;;;5.60;5.20;;;24.50;77.50;;;;;;4999200;28;20533;-81
2022/07/23 01:16:17;;;;;;;6.13;5.63;;;24.50;77.30;;;;;;4999020;28;20446;-81
2022/07/23 01:18:44;;;;;;;6.10;5.50;;;24.50;77.00;;;;;;4999799;28;20521;-81
2022/07/23 01:21:13;;;;;;;6.60;6.10;;;24.50;77.40;;;;;;5000631;28;20447;-81
2022/07/23 01:23:42;;;;;;;6.77;5.80;;;24.50;76.60;;;;;;4999357;28;20506;-81
2022/07/23 01:26:08;;;;;;;7.30;6.60;;;24.50;77.10;;;;;;4999456;28;20458;-81
2022/07/23 01:28:35;;;;;;;6.83;6.10;;;24.50;76.10;;;;;;5000752;28;20494;-81
2022/07/23 01:31:02;;;;;;;6.20;5.60;;;24.60;76.10;;;;;;4998955;28;20448;-81
2022/07/23 01:33:28;;;;;;;5.67;5.13;;;24.60;75.80;;;;;;5000950;28;20543;-81
2022/07/23 01:35:55;;;;;;;5.93;5.53;;;24.60;76.30;;;;;;5004594;28;20451;-81
2022/07/23 01:38:22;;;;;;;6.10;5.47;;;24.60;75.60;;;;;;5000272;28;20439;-81
2022/07/23 01:40:50;;;;;;;6.47;5.97;;;24.60;75.80;;;;;;5000434;28;20448;-81
2022/07/23 01:43:17;;;;;;;6.10;5.57;;;24.70;74.90;;;;;;4998836;28;20454;-81
2022/07/23 01:45:44;;;;;;;8.50;5.93;;;24.60;74.90;;;;;;4998854;28;20877;-81
2022/07/23 01:48:11;;;;;;;6.10;5.60;;;24.70;75.40;;;;;;5000297;28;20861;-81
2022/07/23 01:50:37;;;;;;;6.10;5.67;;;24.70;75.00;;;;;;4998885;28;20451;-81
2022/07/23 01:53:04;;;;;;;6.03;5.57;;;24.80;75.40;;;;;;4998963;28;20819;-81
2022/07/23 01:55:31;;;;;;;6.23;5.73;;;24.70;75.00;;;;;;4999472;28;20468;-81
2022/07/23 01:57:59;;;;;;;6.03;5.53;;;24.70;75.00;;;;;;4998102;28;20455;-81
2022/07/23 02:00:26;;;;;;;6.10;5.60;;;24.70;75.20;;;;;;4999691;28;20451;-81
2022/07/23 02:02:52;;;;;;;6.07;5.63;;;24.60;75.70;;;;;;4999529;28;20470;-81
2022/07/23 02:05:19;;;;;;;6.33;5.67;;;24.50;75.50;;;;;;4998832;28;20502;-82
2022/07/23 02:07:46;;;;;;;6.23;5.73;;;24.60;76.30;;;;;;5001432;28;20487;-81
2022/07/23 02:10:12;;;;;;;6.90;6.30;;;24.50;76.00;;;;;;5011962;28;20451;-81
2022/07/23 02:12:39;;;;;;;6.10;5.47;;;24.50;76.10;;;;;;5000923;28;20874;-81
2022/07/23 02:15:08;;;;;;;5.50;5.10;;;24.50;75.70;;;;;;5001498;28;20471;-81
2022/07/23 02:17:35;;;;;;;6.43;5.83;;;24.40;76.70;;;;;;4998320;28;20505;-81
2022/07/23 02:20:02;;;;;;;6.17;5.60;;;24.50;76.60;;;;;;4998220;28;20450;-81
2022/07/23 02:22:29;;;;;;;8.50;6.30;;;24.50;76.50;;;;;;4999107;28;20440;-81
2022/07/23 02:24:55;;;;;;;6.67;6.07;;;24.50;77.30;;;;;;5000882;28;20484;-81
2022/07/23 02:27:22;;;;;;;6.40;5.90;;;24.50;76.50;;;;;;4997776;28;21227;-80
2022/07/23 02:29:49;;;;;;;6.83;5.80;;;24.50;77.00;;;;;;4998073;28;20861;-80
2022/07/23 02:32:17;;;;;;;6.60;6.07;;;24.50;77.30;;;;;;5003671;28;20649;-79
2022/07/23 02:34:44;;;;;;;7.43;6.80;;;24.50;77.40;;;;;;5004151;28;20482;-80
2022/07/23 02:37:10;;;;;;;7.13;6.37;;;24.40;77.30;;;;;;5001168;28;20451;-80
2022/07/23 02:39:37;;;;;;;6.33;5.87;;;24.30;77.60;;;;;;5003352;28;20448;-80
2022/07/23 02:42:04;;;;;;;6.13;5.63;;;24.30;78.90;;;;;;5000703;28;20455;-80
2022/07/23 02:44:31;;;;;;;9.23;6.87;;;24.30;78.40;;;;;;5002320;28;20468;-79
2022/07/23 02:46:58;;;;;;;7.20;6.60;;;24.30;78.50;;;;;;5011082;28;20461;-79
2022/07/23 02:49:26;;;;;;;7.17;6.07;;;24.20;78.20;;;;;;5010301;28;20454;-79
2022/07/23 02:51:53;;;;;;;6.80;6.20;;;24.10;78.20;;;;;;5006903;28;20450;-79
2022/07/23 02:54:20;;;;;;;6.47;5.90;;;24.10;78.40;;;;;;5001320;28;20460;-80
2022/07/23 02:56:46;;;;;;;7.20;6.57;;;24.10;78.60;;;;;;4998499;28;20440;-81
2022/07/23 02:59:13;;;;;;;6.73;6.03;;;24.10;79.20;;;;;;4997851;28;20471;-80
2022/07/23 03:01:40;;;;;;;6.70;6.20;;;24.10;79.30;;;;;;4997055;28;20458;-80
2022/07/23 03:04:06;;;;;;;6.60;6.00;;;24.00;79.30;;;;;;4998170;28;20466;-80
2022/07/23 03:06:34;;;;;;;6.70;6.20;;;23.90;79.80;;;;;;4997499;28;20959;-80
2022/07/23 03:09:01;;;;;;;6.50;5.90;;;23.90;80.20;;;;;;5004963;28;20546;-80
2022/07/23 03:11:28;;;;;;;6.57;6.10;;;23.90;80.40;;;;;;4998320;28;20447;-80
2022/07/23 03:13:54;;;;;;;5.77;5.37;;;23.90;80.80;;;;;;4999422;28;20517;-81
2022/07/23 03:16:21;;;;;;;6.53;5.90;;;23.90;80.70;;;;;;4998799;28;20639;-81
2022/07/23 03:18:48;;;;;;;5.97;5.47;;;23.90;81.00;;;;;;4998073;28;20443;-81
2022/07/23 03:21:15;;;;;;;6.27;5.77;;;23.90;81.40;;;;;;4998541;28;20455;-81
2022/07/23 03:23:43;;;;;;;6.20;5.70;;;23.90;81.70;;;;;;5001303;28;20482;-81
2022/07/23 03:26:09;;;;;;;6.63;6.03;;;23.90;81.70;;;;;;5012262;28;20462;-81
2022/07/23 03:28:36;;;;;;;6.93;6.33;;;23.90;81.90;;;;;;4999264;28;20483;-81
2022/07/23 03:31:03;;;;;;;6.50;5.90;;;23.90;81.80;;;;;;4997771;28;20452;-81
2022/07/23 03:33:29;;;;;;;8.27;7.53;;;23.90;82.00;;;;;;4997376;28;20554;-81
2022/07/23 03:35:56;;;;;;;7.23;6.60;;;23.80;82.60;;;;;;4997758;28;20477;-81
2022/07/23 03:38:23;;;;;;;7.53;6.93;;;23.60;82.70;;;;;;4997587;28;20435;-81
2022/07/23 03:40:51;;;;;;;6.60;6.00;;;23.60;83.40;;;;;;4996153;28;20447;-81
2022/07/23 03:43:17;;;;;;;6.90;6.40;;;23.60;83.50;;;;;;4996971;28;20533;-81
2022/07/23 03:45:44;;;;;;;7.70;7.03;;;23.70;83.50;;;;;;4996099;28;20443;-81
2022/07/23 03:48:11;;;;;;;7.00;6.30;;;23.80;83.60;;;;;;4998812;28;20490;-81
2022/07/23 03:50:37;;;;;;;6.67;6.07;;;23.80;83.60;;;;;;5000882;28;20517;-81
2022/07/23 03:53:04;;;;;;;7.33;6.63;;;23.80;83.50;;;;;;5007615;28;20443;-80
2022/07/23 03:55:31;;;;;;;6.70;6.10;;;23.70;83.40;;;;;;5001748;28;20491;-81
2022/07/23 03:57:59;;;;;;;7.30;6.70;;;23.70;83.60;;;;;;4997542;28;20447;-81
2022/07/23 04:00:25;;;;;;;7.30;6.60;;;23.70;83.90;;;;;;4998338;28;20456;-81
2022/07/23 04:02:52;;;;;;;7.67;6.97;;;23.70;84.00;;;;;;4997505;28;20443;-81
2022/07/23 04:05:19;;;;;;;7.50;6.80;;;23.70;84.30;;;;;;4997104;28;20526;-81
2022/07/23 04:07:46;;;;;;;6.90;6.23;;;23.70;84.80;;;;;;4998019;28;20495;-81
2022/07/23 04:10:12;;;;;;;9.50;8.70;;;23.60;85.40;;;;;;5000328;28;20455;-81
2022/07/23 04:12:39;;;;;;;7.90;7.20;;;23.70;83.80;;;;;;5001486;28;20440;-81
2022/07/23 04:15:09;;;;;;;8.90;8.10;;;23.70;85.60;;;;;;4998511;28;20502;-81
2022/07/23 04:17:35;;;;;;;8.33;7.63;;;23.70;85.00;;;;;;4999028;28;20498;-81
2022/07/23 04:20:02;;;;;;;9.57;8.67;;;23.70;85.10;;;;;;5001809;28;20475;-81
2022/07/23 04:22:29;;;;;;;9.87;8.97;;;23.80;85.00;;;;;;5000446;28;20487;-81
2022/07/23 04:24:55;;;;;;;8.90;8.03;;;23.80;84.50;;;;;;5000118;28;20525;-81
2022/07/23 04:27:22;;;;;;;9.40;8.50;;;23.90;84.40;;;;;;4998497;28;20459;-81
2022/07/23 04:29:49;;;;;;;8.37;7.57;;;24.00;84.50;;;;;;5001578;28;20455;-81
2022/07/23 04:32:17;;;;;;;8.93;8.10;;;24.00;84.20;;;;;;5004903;28;20455;-81
2022/07/23 04:34:43;;;;;;;7.97;7.37;;;24.10;84.40;;;;;;5001483;28;20475;-81
2022/07/23 04:37:10;;;;;;;8.37;7.60;;;24.00;84.30;;;;;;5009888;28;20450;-81
2022/07/23 04:39:37;;;;;;;8.57;7.77;;;24.00;84.30;;;;;;5004706;28;20454;-81
2022/07/23 04:42:04;;;;;;;9.27;8.47;;;24.10;84.30;;;;;;5004749;28;20502;-81
2022/07/23 04:44:30;;;;;;;8.80;8.10;;;24.10;84.20;;;;;;5000903;28;20467;-81
2022/07/23 04:46:57;;;;;;;8.17;7.47;;;24.10;84.10;;;;;;5000519;28;20451;-81
2022/07/23 04:49:25;;;;;;;8.43;7.63;;;24.10;84.20;;;;;;5000923;28;20483;-81
2022/07/23 04:51:52;;;;;;;7.70;6.97;;;24.10;83.80;;;;;;5000680;28;20972;-81
2022/07/23 04:54:18;;;;;;;8.40;7.60;;;24.10;83.80;;;;;;5000167;28;20514;-81
2022/07/23 04:56:45;;;;;;;7.40;6.60;;;24.20;83.70;;;;;;5000079;28;20497;-81
2022/07/23 04:59:12;;;;;;;7.20;6.70;;;24.20;83.20;;;;;;5001737;28;20640;-83
2022/07/23 05:01:38;;;;;;;7.60;6.90;;;24.20;83.40;;;;;;5002180;28;20482;-83
2022/07/23 05:04:05;;;;;;;7.83;5.83;;;24.20;83.30;;;;;;5001273;28;20473;-81
2022/07/23 05:06:33;;;;;;;7.77;7.10;;;24.20;83.40;;;;;;5000814;28;20451;-81
2022/07/23 05:09:00;;;;;;;7.00;6.30;;;24.30;83.50;;;;;;5000477;28;20482;-81
2022/07/23 05:11:26;;;;;;;7.27;6.67;;;24.30;83.20;;;;;;4999646;28;20458;-81
2022/07/23 05:13:53;;;;;;;7.07;6.43;;;24.40;83.00;;;;;;4999921;28;20518;-81
2022/07/23 05:16:20;;;;;;;7.47;6.53;;;24.40;83.10;;;;;;5005662;28;20454;-81
2022/07/23 05:18:46;;;;;;;7.10;6.50;;;24.50;82.70;;;;;;5019453;28;20454;-80
2022/07/23 05:21:13;;;;;;;6.80;6.10;;;24.70;82.80;;;;;;5013006;28;20440;-81
2022/07/23 05:23:44;;;;;;;7.10;6.57;;;25.00;81.70;;;;;;5010091;28;20467;-81
2022/07/23 05:26:10;;;;;;;7.70;7.10;;;25.20;80.80;;;;;;5005834;28;20452;-81
2022/07/23 05:28:37;;;;;;;8.70;7.90;;;25.40;80.20;;;;;;5007974;28;20483;-81
2022/07/23 05:31:04;;;;;;;7.93;7.30;;;25.60;79.00;;;;;;5005188;28;20455;-81
2022/07/23 05:36:09;;;;;;;7.70;7.00;;;25.60;78.80;;;;;;5034853;28;20478;-77
2022/07/23 05:38:36;;;;;;;10.27;7.43;;;26.00;78.50;;;;;;5037475;28;20446;-77
2022/07/23 05:41:04;;;;;;;9.37;8.47;;;26.50;77.10;;;;;;5038209;28;20449;-78
2022/07/23 05:43:31;;;;;;;7.90;6.50;;;26.70;74.70;;;;;;5037944;28;20508;-78
2022/07/23 05:45:57;;;;;;;10.70;7.63;;;26.40;75.10;;;;;;5037629;28;20476;-77
2022/07/23 05:48:24;;;;;;;7.30;6.70;;;26.30;75.00;;;;;;5037282;28;20489;-78
2022/07/23 05:50:51;;;;;;;7.67;7.03;;;26.20;75.70;;;;;;5037999;28;20454;-78
2022/07/23 05:53:18;;;;;;;7.97;7.37;;;26.10;76.00;;;;;;5037856;28;20447;-77
2022/07/23 05:55:44;;;;;;;7.97;7.00;;;26.10;75.70;;;;;;5034050;28;20982;-77
2022/07/23 05:58:12;;;;;;;8.03;7.43;;;26.10;75.90;;;;;;5034933;28;20449;-77
2022/07/23 06:00:39;;;;;;;8.13;7.27;;;26.00;76.50;;;;;;5033478;28;20958;-77
2022/07/23 06:03:06;;;;;;;7.37;6.63;;;26.00;76.50;;;;;;5033556;28;20453;-77
2022/07/23 06:05:33;;;;;;;7.50;6.90;;;26.00;76.50;;;;;;5033583;28;20491;-77
2022/07/23 06:07:59;;;;;;;8.60;7.70;;;26.10;75.90;;;;;;5033530;28;20828;-77
2022/07/23 06:10:26;;;;;;;7.87;6.97;;;26.00;75.70;;;;;;5033757;28;20885;-77
2022/07/23 06:12:53;;;;;;;7.20;6.63;;;25.90;75.80;;;;;;5033338;28;20484;-78
2022/07/23 06:15:21;;;;;;;7.50;6.90;;;25.90;76.30;;;;;;5037145;28;20467;-78
2022/07/23 06:17:48;;;;;;;9.27;8.37;;;25.90;76.50;;;;;;5036964;28;20453;-77
2022/07/23 06:20:14;;;;;;;7.40;6.80;;;25.90;76.00;;;;;;5037017;28;20496;-78
2022/07/23 06:22:41;;;;;;;8.10;7.40;;;25.90;75.10;;;;;;5034690;28;20453;-77
2022/07/23 06:25:09;;;;;;;7.80;7.10;;;26.00;74.30;;;;;;5033311;28;20461;-78
2022/07/23 06:27:36;;;;;;;7.73;7.13;;;26.40;74.00;;;;;;5034323;28;20526;-77
2022/07/23 06:30:03;;;;;;;8.23;7.53;;;27.40;72.10;;;;;;5034322;28;20909;-77
2022/07/23 06:32:31;;;;;;;7.50;6.90;;;27.90;69.60;;;;;;5034519;28;20458;-77
2022/07/23 06:34:57;;;;;;;8.33;7.63;;;28.10;68.50;;;;;;5039739;28;20486;-77
2022/07/23 06:37:24;;;;;;;7.80;7.20;;;28.00;68.20;;;;;;5043283;28;20448;-77
2022/07/23 06:39:51;;;;;;;7.90;7.20;;;28.10;67.50;;;;;;5039807;28;20445;-78
2022/07/23 06:42:17;;;;;;;7.80;7.20;;;28.10;66.80;;;;;;5041180;28;20447;-77
2022/07/23 06:44:44;;;;;;;7.97;7.27;;;28.00;67.20;;;;;;5036909;28;20916;-77
2022/07/23 06:47:11;;;;;;;8.10;7.40;;;27.80;67.70;;;;;;5037421;28;20453;-77
2022/07/23 06:49:40;;;;;;;8.70;8.00;;;27.70;67.60;;;;;;5037633;28;20481;-78
2022/07/23 06:52:07;;;;;;;8.27;7.63;;;27.60;67.20;;;;;;5037460;28;20488;-78
2022/07/23 06:54:34;;;;;;;8.13;7.53;;;27.70;66.30;;;;;;5037343;28;20480;-78
2022/07/23 06:57:01;;;;;;;8.37;7.57;;;28.00;65.90;;;;;;5037044;28;20450;-77
2022/07/23 06:59:28;;;;;;;7.20;6.50;;;27.90;65.30;;;;;;5037311;28;20454;-78
2022/07/23 07:01:54;;;;;;;8.47;7.67;;;27.80;65.60;;;;;;5036661;28;20471;-77
2022/07/23 07:04:21;;;;;;;8.13;7.43;;;27.60;65.70;;;;;;5037726;28;20490;-78
2022/07/23 07:06:49;;;;;;;8.50;7.70;;;27.30;66.70;;;;;;5035370;28;20994;-77
2022/07/23 07:09:16;;;;;;;7.83;7.23;;;27.10;67.90;;;;;;5036237;28;20505;-78
2022/07/23 07:11:42;;;;;;;8.60;7.80;;;26.90;68.90;;;;;;5036009;28;20451;-78
2022/07/23 07:14:09;;;;;;;7.97;7.20;;;26.70;69.60;;;;;;5036594;28;20987;-78
2022/07/23 07:16:36;;;;;;;9.00;8.10;;;26.60;70.30;;;;;;5038112;28;20884;-77
2022/07/23 07:19:02;;;;;;;9.37;8.57;;;26.40;70.90;;;;;;5040404;28;20442;-77
2022/07/23 07:21:29;;;;;;;9.00;8.40;;;26.40;71.70;;;;;;5036311;28;20511;-77
2022/07/23 07:23:57;;;;;;;8.73;7.93;;;26.40;72.20;;;;;;5035764;28;20582;-78
2022/07/23 07:26:24;;;;;;;9.10;8.40;;;26.30;72.70;;;;;;5035863;28;20458;-78
2022/07/23 07:28:51;;;;;;;8.80;7.97;;;26.10;73.90;;;;;;5037010;28;20997;-78
2022/07/23 07:31:17;;;;;;;9.23;8.43;;;25.90;74.00;;;;;;5034447;28;20993;-77
2022/07/23 07:33:44;;;;;;;8.77;7.90;;;25.60;75.30;;;;;;5034405;28;20453;-79
2022/07/23 07:36:11;;;;;;;8.67;7.87;;;25.50;76.30;;;;;;5042091;28;20437;-77
2022/07/23 07:38:37;;;;;;;8.83;8.13;;;25.30;77.80;;;;;;5055177;28;20461;-79
2022/07/23 07:41:07;;;;;;;7.83;7.13;;;25.20;77.90;;;;;;5055134;28;20438;-77
2022/07/23 07:43:33;;;;;;;9.37;8.47;;;25.20;78.50;;;;;;5052593;28;20438;-77
2022/07/23 07:46:00;;;;;;;9.20;8.40;;;25.20;79.00;;;;;;5053879;28;20453;-78
2022/07/23 07:48:27;;;;;;;9.30;8.50;;;25.30;79.70;;;;;;5053198;28;20429;-77
2022/07/23 07:50:53;;;;;;;9.53;8.83;;;25.50;80.40;;;;;;5049362;28;20943;-78
2022/07/23 07:53:20;;;;;;;9.00;8.10;;;25.80;79.80;;;;;;5035288;28;20426;-78
2022/07/23 07:55:47;;;;;;;9.40;8.50;;;26.00;79.40;;;;;;5032464;28;20492;-77
2022/07/23 07:58:15;;;;;;;8.20;7.40;;;26.20;78.50;;;;;;5034329;28;20438;-77
2022/07/23 08:00:41;;;;;;;8.97;8.27;;;26.50;77.30;;;;;;5034920;28;20544;-77
2022/07/23 08:03:08;;;;;;;9.20;8.00;;;26.50;76.00;;;;;;5034652;28;20503;-77
2022/07/23 08:05:35;;;;;;;7.70;7.10;;;26.90;75.10;;;;;;5034186;28;20499;-78
2022/07/23 08:08:02;;;;;;;8.53;7.83;;;27.20;74.00;;;;;;5034985;28;20458;-77
2022/07/23 08:10:31;;;;;;;9.30;8.60;;;27.50;74.20;;;;;;5034986;28;20509;-77
2022/07/23 08:13:00;;;;;;;8.37;7.60;;;27.70;71.90;;;;;;5034872;28;20449;-77
2022/07/23 08:15:30;;;;;;;7.90;7.30;;;28.00;71.80;;;;;;5035243;28;20504;-78
2022/07/23 08:17:57;;;;;;;8.53;7.83;;;28.70;71.00;;;;;;5035033;28;20454;-78
2022/07/23 08:20:25;;;;;;;8.50;7.70;;;30.40;66.20;;;;;;5035344;28;20450;-78
2022/07/23 08:22:53;;;;;;;8.13;7.53;;;31.80;61.70;;;;;;5035616;28;20457;-78
2022/07/23 08:25:22;;;;;;;7.57;7.07;;;32.10;58.70;;;;;;5036666;28;20978;-79
2022/07/23 08:27:49;;;;;;;8.07;7.37;;;31.70;58.40;;;;;;5038227;28;20451;-79
2022/07/23 08:30:17;;;;;;;8.00;7.40;;;30.80;60.10;;;;;;5039060;28;20524;-79
2022/07/23 08:32:54;;;;;;;9.33;8.10;;;29.90;62.70;;;;;;5035591;28;20446;-78
2022/07/23 08:35:24;;;;;;;8.37;7.77;;;28.30;67.70;;;;;;5032101;28;20473;-77
2022/07/23 08:37:51;;;;;;;7.93;7.20;;;27.80;68.90;;;;;;5032061;28;20454;-76
2022/07/23 08:40:18;;;;;;;8.07;7.47;;;27.50;70.70;;;;;;5032714;28;20877;-76
2022/07/23 08:42:47;;;;;;;8.10;7.40;;;26.60;71.30;;;;;;5033647;28;20450;-77
2022/07/23 08:45:17;;;;;;;8.07;7.33;;;26.40;72.40;;;;;;5036582;28;20971;-77
2022/07/23 08:47:45;;;;;;;8.93;8.30;;;26.40;74.00;;;;;;5034513;28;20456;-77
2022/07/23 08:50:13;;;;;;;8.47;7.67;;;26.90;74.90;;;;;;5034528;28;20500;-77
2022/07/23 08:52:40;;;;;;;8.73;8.03;;;27.70;71.50;;;;;;5033771;28;20455;-77
2022/07/23 08:55:08;;;;;;;8.30;7.67;;;28.50;70.00;;;;;;5033422;28;20480;-77
2022/07/23 08:57:35;;;;;;;7.77;7.17;;;30.40;65.20;;;;;;5034611;28;20450;-78
2022/07/23 09:00:03;;;;;;;7.93;7.10;;;32.40;59.70;;;;;;5035522;28;20455;-77
2022/07/23 09:02:30;;;;;;;7.57;6.97;;;33.50;56.00;;;;;;5037010;28;20546;-77
2022/07/23 09:04:57;;;;;;;7.83;7.17;;;32.90;54.40;;;;;;5036595;28;20451;-79
2022/07/23 09:07:25;;;;;;;7.50;7.00;;;34.00;54.30;;;;;;5036545;28;20472;-79
2022/07/23 09:10:06;;;;;;;8.30;7.50;;;33.70;53.00;;;;;;5035949;28;20489;-77
2022/07/23 09:12:34;;;;;;;7.70;7.10;;;33.70;53.10;;;;;;5037266;28;20450;-77
2022/07/23 09:15:05;;;;;;;7.93;7.40;;;34.90;51.80;;;;;;5036541;28;20540;-78
2022/07/23 09:17:39;;;;;;;6.57;6.10;;;35.80;49.80;;;;;;5039609;28;20442;-79
2022/07/23 09:20:11;;;;;;;7.47;6.97;;;35.90;47.80;;;;;;5038285;28;21118;-78
2022/07/23 09:22:40;;;;;;;6.47;5.97;;;36.10;46.40;;;;;;5037742;28;20452;-78
2022/07/23 09:25:13;;;;;;;7.40;6.80;;;35.60;46.20;;;;;;5038673;28;20478;-78
2022/07/23 09:27:48;;;;;;;7.40;6.80;;;36.80;45.20;;;;;;5036077;28;20495;-78
2022/07/23 09:30:15;;;;;;;7.17;6.67;;;36.90;44.20;;;;;;5035710;28;20488;-77
2022/07/23 09:32:42;;;;;;;7.10;6.57;;;37.40;42.60;;;;;;5040480;28;20882;-77
2022/07/23 09:35:09;;;;;;;6.97;6.47;;;37.90;41.40;;;;;;5053029;28;20485;-77
2022/07/23 09:37:36;;;;;;;6.60;6.20;;;38.00;40.20;;;;;;5053585;28;20462;-78
2022/07/23 09:40:11;;;;;;;7.50;7.00;;;38.20;40.50;;;;;;5035382;28;20448;-77
2022/07/23 09:42:38;;;;;;;8.97;7.07;;;39.00;39.00;;;;;;5036415;28;20479;-78
2022/07/23 09:45:12;;;;;;;7.10;6.50;;;39.30;38.00;;;;;;5028411;28;20458;-79
2022/07/23 09:47:38;;;;;;;6.53;6.13;;;40.10;37.60;;;;;;5031181;28;20471;-79
2022/07/23 09:50:08;;;;;;;7.20;6.60;;;40.80;36.30;;;;;;5022214;28;20528;-78
2022/07/23 09:52:37;;;;;;;7.07;6.57;;;40.60;35.60;;;;;;5019810;28;20498;-79
2022/07/23 09:55:05;;;;;;;6.43;5.93;;;39.30;37.20;;;;;;5021287;28;20472;-78
2022/07/23 09:57:34;;;;;;;7.37;6.87;;;38.90;37.10;;;;;;5026989;28;20965;-79
2022/07/23 10:00:03;;;;;;;6.93;6.43;;;39.10;37.70;;;;;;5041002;28;20468;-77
2022/07/23 10:02:32;;;;;;;12.10;10.93;;;39.50;37.20;;;;;;5040989;28;20501;-77
2022/07/23 10:04:59;;;;;;;7.73;7.23;;;39.70;37.30;;;;;;5026116;28;20465;-77
2022/07/23 10:07:29;;;;;;;6.10;5.70;;;41.40;35.70;;;;;;5021368;28;20476;-78
2022/07/23 10:09:57;;;;;;;6.60;6.20;;;40.60;34.70;;;;;;5022995;28;20562;-77
2022/07/23 10:15:14;;;;;;;6.70;6.20;;;41.00;35.50;;;;;;5003378;28;20530;-77
2022/07/23 10:17:41;;;;;;;6.97;6.50;;;41.80;33.60;;;;;;5023180;28;20431;-77
2022/07/23 10:20:08;;;;;;;6.83;6.33;;;41.90;33.20;;;;;;5018728;28;20435;-78
2022/07/23 10:22:37;;;;;;;6.80;6.20;;;42.70;32.30;;;;;;5022920;28;20442;-80
2022/07/23 10:25:17;;;;;;;6.53;6.10;;;42.60;32.40;;;;;;5022745;28;20455;-77
2022/07/23 10:27:58;;;;;;;6.40;5.97;;;43.50;31.50;;;;;;5029525;28;20807;-82
2022/07/23 10:30:37;;;;;;;6.83;6.37;;;43.20;31.00;;;;;;5035394;28;20557;-82
2022/07/23 10:33:18;;;;;;;6.40;5.97;;;42.90;31.20;;;;;;5035551;28;20470;-79
2022/07/23 10:35:50;;;;;;;6.27;5.83;;;42.90;31.20;;;;;;5031859;28;20472;-78
2022/07/23 10:38:25;;;;;;;6.50;6.10;;;42.60;31.80;;;;;;5015240;28;20442;-77
2022/07/23 10:40:57;;;;;;;6.80;6.40;;;42.30;31.90;;;;;;5013078;28;20807;-79
2022/07/23 10:43:24;;;;;;;6.53;6.10;;;43.10;31.50;;;;;;5017823;28;21074;-78
2022/07/23 10:45:53;;;;;;;6.47;6.07;;;42.80;31.60;;;;;;5020644;28;20458;-77
2022/07/23 10:48:21;;;;;;;6.20;5.80;;;43.10;31.40;;;;;;5035848;28;20462;-77
2022/07/23 10:51:10;;;;;;;7.33;6.83;;;43.50;30.90;;;;;;5033200;28;20482;-77
2022/07/23 10:53:57;;;;;;;6.70;6.30;;;43.50;30.30;;;;;;5034570;28;20537;-78
2022/07/23 10:57:06;;;;;;;7.20;6.70;;;43.40;30.90;;;;;;5035514;28;20469;-77
2022/07/23 10:59:32;;;;;;;7.00;6.50;;;44.30;30.40;;;;;;5034343;28;20446;-77
2022/07/23 11:02:25;;;;;;;7.17;6.67;;;42.80;30.30;;;;;;5033723;28;20984;-76
2022/07/23 11:04:53;;;;;;;6.77;6.37;;;42.20;31.40;;;;;;5033011;28;20476;-77
2022/07/23 11:07:20;;;;;;;6.93;6.43;;;40.60;33.40;;;;;;5032673;28;20460;-77
2022/07/23 11:09:47;;;;;;;6.00;5.60;;;41.00;34.10;;;;;;5034780;28;20489;-79
2022/07/23 11:12:33;;;;;;;6.93;6.53;;;42.20;32.60;;;;;;5034164;28;20515;-77
2022/07/23 11:15:01;;;;;;;6.33;5.93;;;43.30;31.20;;;;;;5034619;28;20561;-77
2022/07/23 11:17:30;;;;;;;7.10;6.60;;;43.70;30.80;;;;;;5036787;28;20449;-77
2022/07/23 11:20:19;;;;;;;6.63;6.20;;;43.00;31.60;;;;;;5034100;28;20438;-77
2022/07/23 11:22:55;;;;;;;6.73;6.33;;;41.90;32.20;;;;;;5033418;28;20451;-77
2022/07/23 11:25:36;;;;;;;7.03;6.53;;;40.60;34.30;;;;;;5033850;28;21037;-77
2022/07/23 11:28:16;;;;;;;7.70;7.20;;;40.70;34.20;;;;;;5033307;28;20532;-77
2022/07/23 11:30:44;;;;;;;7.17;6.67;;;41.20;33.80;;;;;;5032174;28;20481;-79
2022/07/23 11:33:21;;;;;;;6.93;6.43;;;41.80;33.10;;;;;;5031289;28;20938;-79
2022/07/23 11:35:50;;;;;;;6.97;6.53;;;42.40;32.60;;;;;;5029736;28;20480;-77
2022/07/23 11:38:19;;;;;;;7.30;6.60;;;43.10;31.40;;;;;;5028871;28;20449;-79
2022/07/23 11:40:47;;;;;;;7.20;6.70;;;42.40;31.10;;;;;;5030040;28;20441;-79
2022/07/23 11:43:15;;;;;;;6.13;5.73;;;41.40;32.10;;;;;;5029590;28;20445;-79
2022/07/23 11:45:44;;;;;;;7.00;6.60;;;40.80;32.80;;;;;;5033207;28;20469;-79
2022/07/23 11:48:16;;;;;;;7.40;6.90;;;41.10;32.70;;;;;;5036469;28;20934;-79
2022/07/23 11:50:45;;;;;;;6.00;5.60;;;41.40;32.10;;;;;;5037547;28;20478;-79
2022/07/23 11:53:11;;;;;;;6.30;5.90;;;41.80;31.70;;;;;;5032286;28;20445;-78
2022/07/23 11:55:38;;;;;;;6.93;6.43;;;41.70;31.70;;;;;;5031504;28;20560;-79
2022/07/23 11:58:05;;;;;;;6.50;6.10;;;42.40;31.30;;;;;;5032997;28;20449;-79
2022/07/23 12:00:33;;;;;;;7.47;6.97;;;43.40;30.20;;;;;;5032016;28;20446;-79
2022/07/23 12:03:03;;;;;;;6.73;6.00;;;43.50;29.90;;;;;;5033362;28;20449;-79
2022/07/23 12:05:32;;;;;;;6.83;6.43;;;44.20;29.80;;;;;;5031801;28;20993;-79
2022/07/23 12:08:02;;;;;;;7.23;6.63;;;44.50;29.30;;;;;;5035877;28;20458;-79
2022/07/23 12:10:30;;;;;;;7.23;6.63;;;44.90;29.20;;;;;;5039303;28;20479;-79
2022/07/23 12:12:59;;;;;;;6.80;6.20;;;45.10;28.60;;;;;;5038526;28;20451;-76
2022/07/23 12:15:29;;;;;;;6.60;6.20;;;45.40;28.50;;;;;;5044967;28;20466;-77
2022/07/23 12:17:55;;;;;;;7.20;6.70;;;43.20;29.70;;;;;;5036000;28;21595;-78
2022/07/23 12:20:24;;;;;;;6.80;6.30;;;43.40;30.30;;;;;;5028171;28;20438;-78
2022/07/23 12:22:53;;;;;;;7.37;6.93;;;43.40;30.50;;;;;;5028227;28;20461;-77
2022/07/23 12:25:22;;;;;;;6.53;6.03;;;43.50;30.40;;;;;;5029241;28;20473;-79
2022/07/23 12:28:00;;;;;;;7.03;6.53;;;43.20;30.20;;;;;;5032013;28;20540;-79
2022/07/23 12:30:29;;;;;;;7.10;6.50;;;42.80;31.30;;;;;;5033008;28;20474;-79
2022/07/23 12:32:58;;;;;;;6.77;6.30;;;42.80;30.30;;;;;;5034593;28;20457;-79
2022/07/23 12:35:33;;;;;;;7.37;6.87;;;42.60;30.30;;;;;;5034651;28;20497;-79
2022/07/23 12:38:01;;;;;;;6.60;6.20;;;43.40;30.20;;;;;;5036212;28;20442;-77
2022/07/23 12:40:32;;;;;;;7.43;6.93;;;43.10;29.80;;;;;;5036784;28;20434;-81
2022/07/23 12:43:02;;;;;;;7.90;7.30;;;42.00;30.70;;;;;;5044988;28;20425;-78
2022/07/23 12:45:44;;;;;;;7.60;7.07;;;41.40;31.60;;;;;;5042584;28;20504;-78
2022/07/23 12:48:18;;;;;;;7.13;6.70;;;41.70;31.50;;;;;;5037650;28;20452;-77
2022/07/23 12:50:50;;;;;;;7.80;7.30;;;41.70;31.60;;;;;;5048920;28;20469;-79
2022/07/23 12:53:20;;;;;;;7.77;7.27;;;41.70;32.00;;;;;;5046247;28;20526;-80
2022/07/23 12:55:50;;;;;;;7.53;6.97;;;41.80;31.70;;;;;;5038096;28;20469;-81